sensor_id;sensor_type;location;lat;lon;timestamp;P1;durP1;ratioP1;P2;durP2;ratioP2
5225;SDS011;2632;51.666;7.146;2023-08-30T00:01:02;8.37;;;5.33;;
5225;SDS011;2632;51.666;7.146;2023-08-30T00:03:29;7.77;;;5.50;;
5225;SDS011;2632;51.666;7.146;2023-08-30T00:06:01;8.23;;;4.97;;
5225;SDS011;2632;51.666;7.146;2023-08-30T00:08:32;7.60;;;4.97;;
5225;SDS011;2632;51.666;7.146;2023-08-30T00:10:59;9.60;;;5.30;;
5225;SDS011;2632;51.666;7.146;2023-08-30T00:13:26;6.57;;;5.30;;
5225;SDS011;2632;51.666;7.146;2023-08-30T00:15:55;7.47;;;5.13;;
5225;SDS011;2632;51.666;7.146;2023-08-30T00:18:21;9.13;;;5.20;;
5225;SDS011;2632;51.666;7.146;2023-08-30T00:20:48;12.97;;;5.60;;
5225;SDS011;2632;51.666;7.146;2023-08-30T00:23:15;6.97;;;5.00;;
5225;SDS011;2632;51.666;7.146;2023-08-30T00:25:42;11.87;;;6.17;;
5225;SDS011;2632;51.666;7.146;2023-08-30T00:28:09;7.67;;;5.07;;
5225;SDS011;2632;51.666;7.146;2023-08-30T00:30:37;7.53;;;5.40;;
5225;SDS011;2632;51.666;7.146;2023-08-30T00:33:04;6.10;;;4.77;;
5225;SDS011;2632;51.666;7.146;2023-08-30T00:35:31;9.30;;;5.07;;
5225;SDS011;2632;51.666;7.146;2023-08-30T00:37:58;10.70;;;6.43;;
5225;SDS011;2632;51.666;7.146;2023-08-30T00:40:24;8.63;;;6.03;;
5225;SDS011;2632;51.666;7.146;2023-08-30T00:42:51;6.57;;;4.90;;
5225;SDS011;2632;51.666;7.146;2023-08-30T00:45:18;7.37;;;6.13;;
5225;SDS011;2632;51.666;7.146;2023-08-30T00:47:45;8.57;;;5.67;;
5225;SDS011;2632;51.666;7.146;2023-08-30T00:50:12;11.97;;;7.50;;
5225;SDS011;2632;51.666;7.146;2023-08-30T00:52:40;11.37;;;6.43;;
5225;SDS011;2632;51.666;7.146;2023-08-30T00:55:07;11.97;;;5.93;;
5225;SDS011;2632;51.666;7.146;2023-08-30T00:57:35;8.93;;;6.90;;
5225;SDS011;2632;51.666;7.146;2023-08-30T01:00:02;7.63;;;5.77;;
5225;SDS011;2632;51.666;7.146;2023-08-30T01:02:31;8.37;;;5.87;;
5225;SDS011;2632;51.666;7.146;2023-08-30T01:04:58;8.10;;;6.00;;
5225;SDS011;2632;51.666;7.146;2023-08-30T01:07:24;6.90;;;6.20;;
5225;SDS011;2632;51.666;7.146;2023-08-30T01:09:53;7.10;;;5.70;;
5225;SDS011;2632;51.666;7.146;2023-08-30T01:12:22;12.77;;;6.60;;
5225;SDS011;2632;51.666;7.146;2023-08-30T01:15:07;9.20;;;6.57;;
5225;SDS011;2632;51.666;7.146;2023-08-30T01:17:39;9.90;;;6.87;;
5225;SDS011;2632;51.666;7.146;2023-08-30T01:20:07;11.77;;;6.50;;
5225;SDS011;2632;51.666;7.146;2023-08-30T01:22:55;9.67;;;6.80;;
5225;SDS011;2632;51.666;7.146;2023-08-30T01:25:31;9.00;;;6.60;;
5225;SDS011;2632;51.666;7.146;2023-08-30T01:28:13;10.43;;;6.83;;
5225;SDS011;2632;51.666;7.146;2023-08-30T01:30:41;9.93;;;7.00;;
5225;SDS011;2632;51.666;7.146;2023-08-30T01:33:09;13.40;;;7.80;;
5225;SDS011;2632;51.666;7.146;2023-08-30T01:35:38;9.83;;;7.10;;
5225;SDS011;2632;51.666;7.146;2023-08-30T01:38:07;15.40;;;7.10;;
5225;SDS011;2632;51.666;7.146;2023-08-30T01:40:36;11.17;;;8.30;;
5225;SDS011;2632;51.666;7.146;2023-08-30T01:43:05;10.47;;;7.70;;
5225;SDS011;2632;51.666;7.146;2023-08-30T01:45:34;12.87;;;8.23;;
5225;SDS011;2632;51.666;7.146;2023-08-30T01:48:03;13.27;;;8.50;;
5225;SDS011;2632;51.666;7.146;2023-08-30T01:50:32;14.57;;;8.57;;
5225;SDS011;2632;51.666;7.146;2023-08-30T01:53:00;14.70;;;8.67;;
5225;SDS011;2632;51.666;7.146;2023-08-30T01:55:28;13.63;;;8.60;;
5225;SDS011;2632;51.666;7.146;2023-08-30T01:57:56;13.00;;;8.30;;
5225;SDS011;2632;51.666;7.146;2023-08-30T02:00:23;9.43;;;6.97;;
5225;SDS011;2632;51.666;7.146;2023-08-30T02:02:49;10.87;;;6.80;;
5225;SDS011;2632;51.666;7.146;2023-08-30T02:05:16;14.23;;;7.13;;
5225;SDS011;2632;51.666;7.146;2023-08-30T02:07:48;11.20;;;7.50;;
5225;SDS011;2632;51.666;7.146;2023-08-30T02:10:31;11.13;;;6.77;;
5225;SDS011;2632;51.666;7.146;2023-08-30T02:13:01;11.03;;;6.57;;
5225;SDS011;2632;51.666;7.146;2023-08-30T02:15:30;10.87;;;6.70;;
5225;SDS011;2632;51.666;7.146;2023-08-30T02:17:59;10.77;;;6.60;;
5225;SDS011;2632;51.666;7.146;2023-08-30T02:20:27;9.90;;;6.60;;
5225;SDS011;2632;51.666;7.146;2023-08-30T02:22:54;11.83;;;6.60;;
5225;SDS011;2632;51.666;7.146;2023-08-30T02:25:34;12.33;;;5.77;;
5225;SDS011;2632;51.666;7.146;2023-08-30T02:28:00;9.30;;;5.83;;
5225;SDS011;2632;51.666;7.146;2023-08-30T02:30:27;9.37;;;6.70;;
5225;SDS011;2632;51.666;7.146;2023-08-30T02:32:53;7.07;;;5.63;;
5225;SDS011;2632;51.666;7.146;2023-08-30T02:35:20;12.73;;;6.50;;
5225;SDS011;2632;51.666;7.146;2023-08-30T02:37:47;8.83;;;5.90;;
5225;SDS011;2632;51.666;7.146;2023-08-30T02:40:14;9.00;;;5.83;;
5225;SDS011;2632;51.666;7.146;2023-08-30T02:42:40;8.53;;;6.00;;
5225;SDS011;2632;51.666;7.146;2023-08-30T02:45:07;9.07;;;6.10;;
5225;SDS011;2632;51.666;7.146;2023-08-30T02:47:34;9.77;;;6.70;;
5225;SDS011;2632;51.666;7.146;2023-08-30T02:50:01;10.47;;;7.70;;
5225;SDS011;2632;51.666;7.146;2023-08-30T02:52:28;10.87;;;7.17;;
5225;SDS011;2632;51.666;7.146;2023-08-30T02:54:54;19.23;;;7.60;;
5225;SDS011;2632;51.666;7.146;2023-08-30T02:57:21;11.23;;;7.40;;
5225;SDS011;2632;51.666;7.146;2023-08-30T02:59:48;17.13;;;8.20;;
5225;SDS011;2632;51.666;7.146;2023-08-30T03:02:14;12.03;;;7.90;;
5225;SDS011;2632;51.666;7.146;2023-08-30T03:04:41;13.47;;;7.33;;
5225;SDS011;2632;51.666;7.146;2023-08-30T03:07:08;11.77;;;7.50;;
5225;SDS011;2632;51.666;7.146;2023-08-30T03:09:34;11.60;;;7.17;;
5225;SDS011;2632;51.666;7.146;2023-08-30T03:12:01;11.97;;;7.10;;
5225;SDS011;2632;51.666;7.146;2023-08-30T03:14:28;12.70;;;6.33;;
5225;SDS011;2632;51.666;7.146;2023-08-30T03:16:54;10.30;;;7.27;;
5225;SDS011;2632;51.666;7.146;2023-08-30T03:19:21;13.33;;;7.00;;
5225;SDS011;2632;51.666;7.146;2023-08-30T03:21:47;8.27;;;5.83;;
5225;SDS011;2632;51.666;7.146;2023-08-30T03:24:14;8.40;;;6.50;;
5225;SDS011;2632;51.666;7.146;2023-08-30T03:26:42;12.00;;;7.30;;
5225;SDS011;2632;51.666;7.146;2023-08-30T03:29:09;12.13;;;7.33;;
5225;SDS011;2632;51.666;7.146;2023-08-30T03:31:36;14.03;;;7.87;;
5225;SDS011;2632;51.666;7.146;2023-08-30T03:34:03;12.13;;;8.10;;
5225;SDS011;2632;51.666;7.146;2023-08-30T03:36:29;14.17;;;7.93;;
5225;SDS011;2632;51.666;7.146;2023-08-30T03:38:56;14.93;;;8.80;;
5225;SDS011;2632;51.666;7.146;2023-08-30T03:41:23;11.53;;;7.17;;
5225;SDS011;2632;51.666;7.146;2023-08-30T03:43:50;12.97;;;7.83;;
5225;SDS011;2632;51.666;7.146;2023-08-30T03:46:16;12.13;;;6.90;;
5225;SDS011;2632;51.666;7.146;2023-08-30T03:48:43;11.90;;;7.73;;
5225;SDS011;2632;51.666;7.146;2023-08-30T03:51:10;12.67;;;8.13;;
5225;SDS011;2632;51.666;7.146;2023-08-30T03:53:36;14.03;;;8.20;;
5225;SDS011;2632;51.666;7.146;2023-08-30T03:56:03;15.10;;;9.13;;
5225;SDS011;2632;51.666;7.146;2023-08-30T03:58:31;11.80;;;8.83;;
5225;SDS011;2632;51.666;7.146;2023-08-30T04:00:57;12.17;;;8.00;;
5225;SDS011;2632;51.666;7.146;2023-08-30T04:03:24;12.00;;;8.23;;
5225;SDS011;2632;51.666;7.146;2023-08-30T04:05:54;18.63;;;9.20;;
5225;SDS011;2632;51.666;7.146;2023-08-30T04:08:22;12.80;;;8.00;;
5225;SDS011;2632;51.666;7.146;2023-08-30T04:10:51;13.17;;;9.00;;
5225;SDS011;2632;51.666;7.146;2023-08-30T04:13:19;14.63;;;8.10;;
5225;SDS011;2632;51.666;7.146;2023-08-30T04:15:45;13.33;;;9.03;;
5225;SDS011;2632;51.666;7.146;2023-08-30T04:18:12;14.17;;;9.13;;
5225;SDS011;2632;51.666;7.146;2023-08-30T04:20:43;16.07;;;9.90;;
5225;SDS011;2632;51.666;7.146;2023-08-30T04:23:10;15.90;;;9.70;;
5225;SDS011;2632;51.666;7.146;2023-08-30T04:25:37;19.23;;;11.60;;
5225;SDS011;2632;51.666;7.146;2023-08-30T04:28:04;15.67;;;9.83;;
5225;SDS011;2632;51.666;7.146;2023-08-30T04:30:31;15.27;;;10.40;;
5225;SDS011;2632;51.666;7.146;2023-08-30T04:32:59;14.67;;;9.50;;
5225;SDS011;2632;51.666;7.146;2023-08-30T04:35:29;18.57;;;10.70;;
5225;SDS011;2632;51.666;7.146;2023-08-30T04:37:57;17.70;;;10.70;;
5225;SDS011;2632;51.666;7.146;2023-08-30T04:40:24;17.43;;;11.00;;
5225;SDS011;2632;51.666;7.146;2023-08-30T04:42:52;18.80;;;10.50;;
5225;SDS011;2632;51.666;7.146;2023-08-30T04:45:19;22.07;;;11.73;;
5225;SDS011;2632;51.666;7.146;2023-08-30T04:47:46;22.37;;;11.23;;
5225;SDS011;2632;51.666;7.146;2023-08-30T04:50:12;20.90;;;12.13;;
5225;SDS011;2632;51.666;7.146;2023-08-30T04:52:39;23.20;;;12.00;;
5225;SDS011;2632;51.666;7.146;2023-08-30T04:55:06;20.53;;;12.20;;
5225;SDS011;2632;51.666;7.146;2023-08-30T04:57:33;21.53;;;12.70;;
5225;SDS011;2632;51.666;7.146;2023-08-30T05:00:00;23.70;;;12.73;;
5225;SDS011;2632;51.666;7.146;2023-08-30T05:02:30;20.50;;;13.10;;
5225;SDS011;2632;51.666;7.146;2023-08-30T05:04:57;27.00;;;13.53;;
5225;SDS011;2632;51.666;7.146;2023-08-30T05:07:24;24.30;;;13.70;;
5225;SDS011;2632;51.666;7.146;2023-08-30T05:09:51;28.93;;;14.13;;
5225;SDS011;2632;51.666;7.146;2023-08-30T05:12:18;27.73;;;15.07;;
5225;SDS011;2632;51.666;7.146;2023-08-30T05:14:44;27.67;;;14.50;;
5225;SDS011;2632;51.666;7.146;2023-08-30T05:17:11;26.10;;;14.67;;
5225;SDS011;2632;51.666;7.146;2023-08-30T05:19:37;23.30;;;13.93;;
5225;SDS011;2632;51.666;7.146;2023-08-30T05:22:04;27.23;;;14.77;;
5225;SDS011;2632;51.666;7.146;2023-08-30T05:24:31;24.33;;;13.83;;
5225;SDS011;2632;51.666;7.146;2023-08-30T05:26:57;24.00;;;14.40;;
5225;SDS011;2632;51.666;7.146;2023-08-30T05:29:24;24.30;;;13.90;;
5225;SDS011;2632;51.666;7.146;2023-08-30T05:31:51;23.63;;;14.23;;
5225;SDS011;2632;51.666;7.146;2023-08-30T05:34:17;26.83;;;14.43;;
5225;SDS011;2632;51.666;7.146;2023-08-30T05:36:44;26.80;;;14.87;;
5225;SDS011;2632;51.666;7.146;2023-08-30T05:39:10;29.33;;;16.90;;
5225;SDS011;2632;51.666;7.146;2023-08-30T05:41:37;29.37;;;15.60;;
5225;SDS011;2632;51.666;7.146;2023-08-30T05:44:04;32.27;;;16.60;;
5225;SDS011;2632;51.666;7.146;2023-08-30T05:46:32;27.40;;;15.50;;
5225;SDS011;2632;51.666;7.146;2023-08-30T05:48:58;30.30;;;16.50;;
5225;SDS011;2632;51.666;7.146;2023-08-30T05:51:28;30.07;;;16.80;;
5225;SDS011;2632;51.666;7.146;2023-08-30T05:53:55;28.50;;;15.97;;
5225;SDS011;2632;51.666;7.146;2023-08-30T05:56:22;25.43;;;15.57;;
5225;SDS011;2632;51.666;7.146;2023-08-30T05:58:48;28.40;;;15.97;;
5225;SDS011;2632;51.666;7.146;2023-08-30T06:01:17;28.73;;;16.77;;
5225;SDS011;2632;51.666;7.146;2023-08-30T06:03:44;26.27;;;15.90;;
5225;SDS011;2632;51.666;7.146;2023-08-30T06:06:12;31.67;;;18.10;;
5225;SDS011;2632;51.666;7.146;2023-08-30T06:08:39;31.33;;;17.80;;
5225;SDS011;2632;51.666;7.146;2023-08-30T06:11:06;30.43;;;16.20;;
5225;SDS011;2632;51.666;7.146;2023-08-30T06:13:33;34.90;;;17.30;;
5225;SDS011;2632;51.666;7.146;2023-08-30T06:16:00;41.83;;;18.27;;
5225;SDS011;2632;51.666;7.146;2023-08-30T06:18:29;32.83;;;18.13;;
5225;SDS011;2632;51.666;7.146;2023-08-30T06:20:58;28.70;;;17.13;;
5225;SDS011;2632;51.666;7.146;2023-08-30T06:23:24;33.40;;;17.73;;
5225;SDS011;2632;51.666;7.146;2023-08-30T06:25:57;27.43;;;16.80;;
5225;SDS011;2632;51.666;7.146;2023-08-30T06:28:24;35.00;;;18.70;;
5225;SDS011;2632;51.666;7.146;2023-08-30T06:30:51;31.60;;;18.77;;
5225;SDS011;2632;51.666;7.146;2023-08-30T06:33:17;27.93;;;16.80;;
5225;SDS011;2632;51.666;7.146;2023-08-30T06:35:47;35.70;;;19.70;;
5225;SDS011;2632;51.666;7.146;2023-08-30T06:38:14;32.40;;;18.57;;
5225;SDS011;2632;51.666;7.146;2023-08-30T06:40:44;33.77;;;17.57;;
5225;SDS011;2632;51.666;7.146;2023-08-30T06:43:12;30.10;;;18.50;;
5225;SDS011;2632;51.666;7.146;2023-08-30T06:45:39;28.47;;;17.53;;
5225;SDS011;2632;51.666;7.146;2023-08-30T06:48:06;33.70;;;19.50;;
5225;SDS011;2632;51.666;7.146;2023-08-30T06:50:34;34.77;;;20.80;;
5225;SDS011;2632;51.666;7.146;2023-08-30T06:53:02;33.33;;;19.60;;
5225;SDS011;2632;51.666;7.146;2023-08-30T06:55:29;34.00;;;19.53;;
5225;SDS011;2632;51.666;7.146;2023-08-30T06:57:56;36.67;;;21.37;;
5225;SDS011;2632;51.666;7.146;2023-08-30T07:00:23;34.07;;;20.50;;
5225;SDS011;2632;51.666;7.146;2023-08-30T07:02:49;46.07;;;23.00;;
5225;SDS011;2632;51.666;7.146;2023-08-30T07:05:16;36.07;;;20.40;;
5225;SDS011;2632;51.666;7.146;2023-08-30T07:07:43;35.80;;;20.10;;
5225;SDS011;2632;51.666;7.146;2023-08-30T07:10:09;33.57;;;19.50;;
5225;SDS011;2632;51.666;7.146;2023-08-30T07:12:36;44.10;;;21.37;;
5225;SDS011;2632;51.666;7.146;2023-08-30T07:15:03;37.23;;;19.73;;
5225;SDS011;2632;51.666;7.146;2023-08-30T07:17:30;33.83;;;19.53;;
5225;SDS011;2632;51.666;7.146;2023-08-30T07:20:16;33.97;;;19.43;;
5225;SDS011;2632;51.666;7.146;2023-08-30T07:22:43;29.47;;;18.73;;
5225;SDS011;2632;51.666;7.146;2023-08-30T07:25:10;38.23;;;19.77;;
5225;SDS011;2632;51.666;7.146;2023-08-30T07:27:36;37.03;;;19.23;;
5225;SDS011;2632;51.666;7.146;2023-08-30T07:30:03;30.23;;;18.57;;
5225;SDS011;2632;51.666;7.146;2023-08-30T07:32:31;32.67;;;18.90;;
5225;SDS011;2632;51.666;7.146;2023-08-30T07:34:57;27.60;;;17.80;;
5225;SDS011;2632;51.666;7.146;2023-08-30T07:37:25;32.47;;;16.40;;
5225;SDS011;2632;51.666;7.146;2023-08-30T07:39:51;27.93;;;15.80;;
5225;SDS011;2632;51.666;7.146;2023-08-30T07:42:19;38.10;;;18.13;;
5225;SDS011;2632;51.666;7.146;2023-08-30T07:44:46;28.20;;;17.40;;
5225;SDS011;2632;51.666;7.146;2023-08-30T07:47:13;38.07;;;18.43;;
5225;SDS011;2632;51.666;7.146;2023-08-30T07:49:40;24.53;;;16.90;;
5225;SDS011;2632;51.666;7.146;2023-08-30T07:52:10;29.30;;;16.70;;
5225;SDS011;2632;51.666;7.146;2023-08-30T07:54:37;23.90;;;16.70;;
5225;SDS011;2632;51.666;7.146;2023-08-30T07:57:05;29.83;;;16.03;;
5225;SDS011;2632;51.666;7.146;2023-08-30T07:59:35;25.30;;;15.53;;
5225;SDS011;2632;51.666;7.146;2023-08-30T08:02:03;23.90;;;15.67;;
5225;SDS011;2632;51.666;7.146;2023-08-30T08:04:34;26.43;;;15.57;;
5225;SDS011;2632;51.666;7.146;2023-08-30T08:07:04;24.53;;;14.00;;
5225;SDS011;2632;51.666;7.146;2023-08-30T08:09:31;20.10;;;13.60;;
5225;SDS011;2632;51.666;7.146;2023-08-30T08:11:59;24.60;;;13.40;;
5225;SDS011;2632;51.666;7.146;2023-08-30T08:14:26;19.30;;;13.67;;
5225;SDS011;2632;51.666;7.146;2023-08-30T08:16:53;16.57;;;11.63;;
5225;SDS011;2632;51.666;7.146;2023-08-30T08:19:20;18.67;;;11.83;;
5225;SDS011;2632;51.666;7.146;2023-08-30T08:21:51;18.93;;;11.00;;
5225;SDS011;2632;51.666;7.146;2023-08-30T08:24:19;15.17;;;11.23;;
5225;SDS011;2632;51.666;7.146;2023-08-30T08:26:47;13.80;;;10.20;;
5225;SDS011;2632;51.666;7.146;2023-08-30T08:29:13;17.80;;;10.23;;
5225;SDS011;2632;51.666;7.146;2023-08-30T08:31:40;13.70;;;10.20;;
5225;SDS011;2632;51.666;7.146;2023-08-30T08:34:10;16.83;;;9.50;;
5225;SDS011;2632;51.666;7.146;2023-08-30T08:36:38;15.00;;;8.70;;
5225;SDS011;2632;51.666;7.146;2023-08-30T08:39:05;16.43;;;9.10;;
5225;SDS011;2632;51.666;7.146;2023-08-30T08:41:34;14.70;;;8.77;;
5225;SDS011;2632;51.666;7.146;2023-08-30T08:44:04;11.77;;;8.30;;
5225;SDS011;2632;51.666;7.146;2023-08-30T08:46:32;11.47;;;7.80;;
5225;SDS011;2632;51.666;7.146;2023-08-30T08:49:09;11.63;;;7.93;;
5225;SDS011;2632;51.666;7.146;2023-08-30T08:51:40;13.93;;;7.67;;
5225;SDS011;2632;51.666;7.146;2023-08-30T08:54:08;11.50;;;8.13;;
5225;SDS011;2632;51.666;7.146;2023-08-30T08:56:36;14.00;;;7.63;;
5225;SDS011;2632;51.666;7.146;2023-08-30T08:59:04;14.70;;;7.40;;
5225;SDS011;2632;51.666;7.146;2023-08-30T09:01:35;11.80;;;6.80;;
5225;SDS011;2632;51.666;7.146;2023-08-30T09:04:06;11.17;;;6.43;;
5225;SDS011;2632;51.666;7.146;2023-08-30T09:06:34;9.40;;;6.20;;
5225;SDS011;2632;51.666;7.146;2023-08-30T09:09:02;10.80;;;6.30;;
5225;SDS011;2632;51.666;7.146;2023-08-30T09:11:34;7.90;;;6.43;;
5225;SDS011;2632;51.666;7.146;2023-08-30T09:14:17;10.57;;;6.20;;
5225;SDS011;2632;51.666;7.146;2023-08-30T09:17:00;11.20;;;6.80;;
5225;SDS011;2632;51.666;7.146;2023-08-30T09:19:28;10.23;;;5.90;;
5225;SDS011;2632;51.666;7.146;2023-08-30T09:21:57;11.17;;;6.83;;
5225;SDS011;2632;51.666;7.146;2023-08-30T09:24:24;7.77;;;5.33;;
5225;SDS011;2632;51.666;7.146;2023-08-30T09:26:52;9.27;;;6.93;;
5225;SDS011;2632;51.666;7.146;2023-08-30T09:29:20;10.30;;;7.37;;
5225;SDS011;2632;51.666;7.146;2023-08-30T09:31:52;13.00;;;8.37;;
5225;SDS011;2632;51.666;7.146;2023-08-30T09:34:22;12.37;;;7.30;;
5225;SDS011;2632;51.666;7.146;2023-08-30T09:36:51;13.30;;;7.70;;
5225;SDS011;2632;51.666;7.146;2023-08-30T09:39:19;11.17;;;7.30;;
5225;SDS011;2632;51.666;7.146;2023-08-30T09:41:48;10.07;;;7.10;;
5225;SDS011;2632;51.666;7.146;2023-08-30T09:44:20;10.70;;;6.97;;
5225;SDS011;2632;51.666;7.146;2023-08-30T09:46:51;11.13;;;7.40;;
5225;SDS011;2632;51.666;7.146;2023-08-30T09:49:20;10.83;;;6.20;;
5225;SDS011;2632;51.666;7.146;2023-08-30T09:51:52;10.63;;;6.10;;
5225;SDS011;2632;51.666;7.146;2023-08-30T09:54:20;8.03;;;6.30;;
5225;SDS011;2632;51.666;7.146;2023-08-30T09:57:05;12.30;;;7.30;;
5225;SDS011;2632;51.666;7.146;2023-08-30T09:59:32;12.53;;;8.00;;
5225;SDS011;2632;51.666;7.146;2023-08-30T10:01:59;15.03;;;8.60;;
5225;SDS011;2632;51.666;7.146;2023-08-30T10:04:27;13.83;;;8.77;;
5225;SDS011;2632;51.666;7.146;2023-08-30T10:06:55;12.50;;;8.53;;
5225;SDS011;2632;51.666;7.146;2023-08-30T10:09:24;15.80;;;9.03;;
5225;SDS011;2632;51.666;7.146;2023-08-30T10:11:51;12.27;;;8.43;;
5225;SDS011;2632;51.666;7.146;2023-08-30T10:14:17;12.07;;;9.10;;
5225;SDS011;2632;51.666;7.146;2023-08-30T10:16:45;14.77;;;9.27;;
5225;SDS011;2632;51.666;7.146;2023-08-30T10:21:45;16.30;;;9.20;;
5225;SDS011;2632;51.666;7.146;2023-08-30T10:24:15;12.73;;;8.73;;
5225;SDS011;2632;51.666;7.146;2023-08-30T10:27:01;11.13;;;7.63;;
5225;SDS011;2632;51.666;7.146;2023-08-30T10:29:31;11.53;;;7.23;;
5225;SDS011;2632;51.666;7.146;2023-08-30T10:32:02;10.50;;;6.50;;
5225;SDS011;2632;51.666;7.146;2023-08-30T10:34:32;9.17;;;6.40;;
5225;SDS011;2632;51.666;7.146;2023-08-30T10:37:03;11.90;;;7.13;;
5225;SDS011;2632;51.666;7.146;2023-08-30T10:39:36;9.50;;;7.03;;
5225;SDS011;2632;51.666;7.146;2023-08-30T10:42:11;10.03;;;7.50;;
5225;SDS011;2632;51.666;7.146;2023-08-30T10:44:48;10.13;;;7.50;;
5225;SDS011;2632;51.666;7.146;2023-08-30T10:47:35;12.33;;;7.63;;
5225;SDS011;2632;51.666;7.146;2023-08-30T10:50:06;9.20;;;7.00;;
5225;SDS011;2632;51.666;7.146;2023-08-30T10:52:37;10.43;;;7.03;;
5225;SDS011;2632;51.666;7.146;2023-08-30T10:55:07;12.07;;;7.67;;
5225;SDS011;2632;51.666;7.146;2023-08-30T10:57:41;10.30;;;7.37;;
5225;SDS011;2632;51.666;7.146;2023-08-30T11:00:18;14.70;;;7.47;;
5225;SDS011;2632;51.666;7.146;2023-08-30T11:02:48;12.53;;;7.90;;
5225;SDS011;2632;51.666;7.146;2023-08-30T11:05:16;13.70;;;8.27;;
5225;SDS011;2632;51.666;7.146;2023-08-30T11:07:43;11.27;;;8.70;;
5225;SDS011;2632;51.666;7.146;2023-08-30T11:10:11;13.50;;;8.90;;
5225;SDS011;2632;51.666;7.146;2023-08-30T11:12:41;13.77;;;8.80;;
5225;SDS011;2632;51.666;7.146;2023-08-30T11:15:09;12.37;;;8.87;;
5225;SDS011;2632;51.666;7.146;2023-08-30T11:17:37;17.90;;;9.33;;
5225;SDS011;2632;51.666;7.146;2023-08-30T11:20:14;13.57;;;9.17;;
5225;SDS011;2632;51.666;7.146;2023-08-30T11:22:44;14.70;;;10.47;;
5225;SDS011;2632;51.666;7.146;2023-08-30T11:25:13;15.83;;;10.30;;
5225;SDS011;2632;51.666;7.146;2023-08-30T11:27:41;14.97;;;10.47;;
5225;SDS011;2632;51.666;7.146;2023-08-30T11:30:09;15.60;;;10.50;;
5225;SDS011;2632;51.666;7.146;2023-08-30T11:32:40;17.83;;;10.80;;
5225;SDS011;2632;51.666;7.146;2023-08-30T11:35:11;13.40;;;9.90;;
5225;SDS011;2632;51.666;7.146;2023-08-30T11:37:38;19.97;;;11.17;;
5225;SDS011;2632;51.666;7.146;2023-08-30T11:40:07;18.53;;;11.10;;
5225;SDS011;2632;51.666;7.146;2023-08-30T11:42:36;19.80;;;11.60;;
5225;SDS011;2632;51.666;7.146;2023-08-30T11:45:03;17.17;;;11.10;;
5225;SDS011;2632;51.666;7.146;2023-08-30T11:47:30;15.83;;;11.70;;
5225;SDS011;2632;51.666;7.146;2023-08-30T11:49:57;17.63;;;12.00;;
5225;SDS011;2632;51.666;7.146;2023-08-30T11:52:25;20.40;;;12.47;;
5225;SDS011;2632;51.666;7.146;2023-08-30T11:54:52;19.33;;;11.33;;
5225;SDS011;2632;51.666;7.146;2023-08-30T11:57:20;17.13;;;10.97;;
5225;SDS011;2632;51.666;7.146;2023-08-30T11:59:47;14.10;;;10.03;;
5225;SDS011;2632;51.666;7.146;2023-08-30T12:02:16;14.07;;;9.90;;
5225;SDS011;2632;51.666;7.146;2023-08-30T12:04:44;14.23;;;10.30;;
5225;SDS011;2632;51.666;7.146;2023-08-30T12:07:25;14.70;;;9.80;;
5225;SDS011;2632;51.666;7.146;2023-08-30T12:10:03;14.30;;;9.17;;
5225;SDS011;2632;51.666;7.146;2023-08-30T12:12:31;12.83;;;8.33;;
5225;SDS011;2632;51.666;7.146;2023-08-30T12:14:57;10.87;;;8.00;;
5225;SDS011;2632;51.666;7.146;2023-08-30T12:17:24;15.43;;;8.40;;
5225;SDS011;2632;51.666;7.146;2023-08-30T12:19:57;13.30;;;7.77;;
5225;SDS011;2632;51.666;7.146;2023-08-30T12:22:37;12.60;;;7.53;;
5225;SDS011;2632;51.666;7.146;2023-08-30T12:25:18;11.70;;;7.50;;
5225;SDS011;2632;51.666;7.146;2023-08-30T12:27:52;9.23;;;6.60;;
5225;SDS011;2632;51.666;7.146;2023-08-30T12:30:29;9.20;;;6.60;;
5225;SDS011;2632;51.666;7.146;2023-08-30T12:33:02;10.40;;;6.60;;
5225;SDS011;2632;51.666;7.146;2023-08-30T12:35:29;8.50;;;6.90;;
5225;SDS011;2632;51.666;7.146;2023-08-30T12:37:56;8.60;;;6.30;;
5225;SDS011;2632;51.666;7.146;2023-08-30T12:40:23;10.73;;;7.50;;
5225;SDS011;2632;51.666;7.146;2023-08-30T12:42:49;10.73;;;7.00;;
5225;SDS011;2632;51.666;7.146;2023-08-30T12:45:16;7.40;;;6.27;;
5225;SDS011;2632;51.666;7.146;2023-08-30T12:47:42;10.13;;;7.13;;
5225;SDS011;2632;51.666;7.146;2023-08-30T12:50:09;7.37;;;6.60;;
5225;SDS011;2632;51.666;7.146;2023-08-30T12:52:36;9.07;;;6.93;;
5225;SDS011;2632;51.666;7.146;2023-08-30T12:55:03;9.57;;;7.00;;
5225;SDS011;2632;51.666;7.146;2023-08-30T12:57:30;8.90;;;6.83;;
5225;SDS011;2632;51.666;7.146;2023-08-30T12:59:56;8.67;;;6.97;;
5225;SDS011;2632;51.666;7.146;2023-08-30T13:02:23;8.33;;;7.40;;
5225;SDS011;2632;51.666;7.146;2023-08-30T13:04:50;8.20;;;6.40;;
5225;SDS011;2632;51.666;7.146;2023-08-30T13:07:17;11.60;;;7.67;;
5225;SDS011;2632;51.666;7.146;2023-08-30T13:09:43;11.20;;;7.67;;
5225;SDS011;2632;51.666;7.146;2023-08-30T13:12:10;14.03;;;7.43;;
5225;SDS011;2632;51.666;7.146;2023-08-30T13:14:37;9.70;;;7.27;;
5225;SDS011;2632;51.666;7.146;2023-08-30T13:17:03;10.27;;;7.30;;
5225;SDS011;2632;51.666;7.146;2023-08-30T13:19:30;11.27;;;7.13;;
5225;SDS011;2632;51.666;7.146;2023-08-30T13:21:57;9.53;;;7.13;;
5225;SDS011;2632;51.666;7.146;2023-08-30T13:24:24;9.77;;;6.83;;
5225;SDS011;2632;51.666;7.146;2023-08-30T13:26:50;9.27;;;6.50;;
5225;SDS011;2632;51.666;7.146;2023-08-30T13:29:17;8.50;;;6.63;;
5225;SDS011;2632;51.666;7.146;2023-08-30T13:31:44;9.47;;;7.00;;
5225;SDS011;2632;51.666;7.146;2023-08-30T13:34:11;8.83;;;7.00;;
5225;SDS011;2632;51.666;7.146;2023-08-30T13:36:37;12.63;;;8.27;;
5225;SDS011;2632;51.666;7.146;2023-08-30T13:39:05;14.77;;;8.03;;
5225;SDS011;2632;51.666;7.146;2023-08-30T13:41:32;11.00;;;8.30;;
5225;SDS011;2632;51.666;7.146;2023-08-30T13:43:58;9.40;;;8.20;;
5225;SDS011;2632;51.666;7.146;2023-08-30T13:46:28;18.17;;;10.77;;
5225;SDS011;2632;51.666;7.146;2023-08-30T13:48:54;12.40;;;8.23;;
5225;SDS011;2632;51.666;7.146;2023-08-30T13:51:24;13.60;;;9.20;;
5225;SDS011;2632;51.666;7.146;2023-08-30T13:53:52;13.03;;;9.60;;
5225;SDS011;2632;51.666;7.146;2023-08-30T13:56:19;12.63;;;8.73;;
5225;SDS011;2632;51.666;7.146;2023-08-30T13:58:46;13.10;;;9.10;;
5225;SDS011;2632;51.666;7.146;2023-08-30T14:01:13;12.70;;;8.03;;
5225;SDS011;2632;51.666;7.146;2023-08-30T14:03:39;11.83;;;8.53;;
5225;SDS011;2632;51.666;7.146;2023-08-30T14:06:06;9.50;;;7.20;;
5225;SDS011;2632;51.666;7.146;2023-08-30T14:08:33;11.73;;;8.10;;
5225;SDS011;2632;51.666;7.146;2023-08-30T14:10:59;9.80;;;7.60;;
5225;SDS011;2632;51.666;7.146;2023-08-30T14:13:26;8.77;;;7.23;;
5225;SDS011;2632;51.666;7.146;2023-08-30T14:15:59;11.77;;;8.03;;
5225;SDS011;2632;51.666;7.146;2023-08-30T14:18:29;11.57;;;7.50;;
5225;SDS011;2632;51.666;7.146;2023-08-30T14:20:57;11.30;;;7.80;;
5225;SDS011;2632;51.666;7.146;2023-08-30T14:23:25;9.40;;;7.00;;
5225;SDS011;2632;51.666;7.146;2023-08-30T14:26:10;11.37;;;7.93;;
5225;SDS011;2632;51.666;7.146;2023-08-30T14:28:39;9.90;;;7.27;;
5225;SDS011;2632;51.666;7.146;2023-08-30T14:31:06;9.73;;;7.00;;
5225;SDS011;2632;51.666;7.146;2023-08-30T14:33:34;8.70;;;6.63;;
5225;SDS011;2632;51.666;7.146;2023-08-30T14:36:01;10.30;;;7.27;;
5225;SDS011;2632;51.666;7.146;2023-08-30T14:38:28;9.23;;;6.50;;
5225;SDS011;2632;51.666;7.146;2023-08-30T14:40:59;10.17;;;5.33;;
5225;SDS011;2632;51.666;7.146;2023-08-30T14:43:27;10.97;;;6.80;;
5225;SDS011;2632;51.666;7.146;2023-08-30T14:46:02;8.43;;;5.93;;
5225;SDS011;2632;51.666;7.146;2023-08-30T14:48:37;8.63;;;6.03;;
5225;SDS011;2632;51.666;7.146;2023-08-30T14:51:04;8.00;;;6.10;;
5225;SDS011;2632;51.666;7.146;2023-08-30T14:53:31;10.20;;;6.67;;
5225;SDS011;2632;51.666;7.146;2023-08-30T14:56:01;8.50;;;6.20;;
5225;SDS011;2632;51.666;7.146;2023-08-30T14:58:33;10.13;;;7.00;;
5225;SDS011;2632;51.666;7.146;2023-08-30T15:01:01;8.50;;;6.13;;
5225;SDS011;2632;51.666;7.146;2023-08-30T15:03:28;11.83;;;7.50;;
5225;SDS011;2632;51.666;7.146;2023-08-30T15:05:55;8.40;;;6.23;;
5225;SDS011;2632;51.666;7.146;2023-08-30T15:08:23;9.37;;;6.50;;
5225;SDS011;2632;51.666;7.146;2023-08-30T15:10:50;9.40;;;6.40;;